Tinley Park, IL (60477)

10:51 CDT 30. Srpen 2015 (GMT -0500)
Chantilly | | Change Station
CLOSE
Current Station
Osobní povětrnostní stanice
Location: Tinley Park, IL
Nadmořská výška: 709 ft
Poblíž povětrnostní stanice

Výška 709 ft 41.58 °N, 87.82 °W | Updated 10 minutes ago

Zataženo
Zataženo
75.2 °F
Pocit jako 77 °F
S
0.0
Vítr proměnlivý Vítr od západní

Dnes
Vysoké -- | Nízké -- °F
--% Možnost srážek
Včera
Vysoké -- | Nízké -- °F
Precip. -- inčů
6:14 AM 7:27 PM
Úplněk, 99% visible
Tlak 30.09 inčů
Viditelnost 4.0 mílí
Zataženo Zataženo 1100 ft
Tepelný index 77 °F
Rosný bod 64 °F
Vlhkost 68%
Dešťové srážky 0.00 inčů
Sněhová pokrývka Není k dispozici
UV záření 2 ze 12
Pyl 9.30 ze 12
Kvalita ovzduší Není k dispozici
Flu Activity Není k dispozici
METAR KIGQ 301535Z AUTO 00000KT 4SM HZ OVC011 21/18 A3009 RMK AO2 T02120182
Tlak 30.09 inčů
Viditelnost 4.0 mílí
Zataženo Zataženo 1100 ft
Tepelný index 77 °F
Rosný bod 64 °F
Vlhkost 68%
Dešťové srážky 0.00 inčů
Sněhová pokrývka Není k dispozici
UV záření 2 ze 12
Pyl 9.30 ze 12
Kvalita ovzduší Není k dispozici
Flu Activity Není k dispozici
METAR KIGQ 301535Z AUTO 00000KT 4SM HZ OVC011 21/18 A3009 RMK AO2 T02120182

10-Day Weather Forecast

×

Almanac

Astronomie

Aug. 30, 2015 Východ Západ
Skutečný čas
Občanský soumrak
Námořní soumrak
Astronomický soumrak
Měsíc
Délka denního světla
Délka dne
Tomorrow will be .
, % of the Moon is Illuminated

Dnešní extrémy

State Highs State Lows

Community

WunderPhotos

Upload Photos

1,850,997 snímků staženo!

WunderBlogs® & News

Nearby

Kvalita ovzduší

  Kvalita ovzduší Index kvality ovzduší Polutant
Not available.

Výška sněhu

Station Hloubka Nadmořská výška

Seizmická činnost

Město Distance Mag. Čas & datum
Minimální zobrazený rozsah je 2.5.

Pobřežní teplota vody

Lokalita Teplota

Stations

Poblíž povětrnostní stanice

Lokace stanice Tepl. Ochlazování větrem Rosný bod Vlhkost Vítr Precip. Výška Čas hlášení Typ